MET: Información y Pronóstico Aeronáutico

///////////////////////////////////////////////////////////////////////////////////////////////////////////////////////////////////////////////////////////////////////////////////////////////////////////////////////////////////////////////

Member for

1 año 7 meses
Enviado por meteorologia el Jue, 23/11/2017 - 11:39
21-02

21 DE FEBRERO 2020

INFORMACION METEOROLOGICA AERONAUTICA (METAR) 12:00 UTC

Aeropuerto AEROPARQUE J. NEWBERY

21 - 12:00 METAR SABE 211200Z 20006KT CAVOK 17/09 Q1023 NOSIG =

Aeropuerto BAHIA BLANCA

21 - 12:00 METAR SAZB 211200Z 20012KT 9999 FEW040 14/08 Q1028 =

Aeropuerto BARILOCHE

21 - 12:00 METAR SAZS 211200Z 16008KT CAVOK 11/M05 Q1028 =

Aeropuerto CATAMARCA

21 - 11:00 METAR SANC 211100Z 05014KT 9999 FEW040 BKN050 21/12 Q1022 =

Aeropuerto CHAPELCO

21 - 12:00 METAR SAZY 211200Z 11014KT CAVOK 11/06 Q1026 =

Aeropuerto COMODORO RIVADAVIA

21 - 12:00 METAR SAVC 211200Z 27008KT CAVOK 16/05 Q1030 =

Aeropuerto CORDOBA

21 - 12:00 METAR SACO 211200Z VRB01KT CAVOK 17/07 Q1027 NOSIG =

Aeropuerto CORRIENTES

21 - 12:00 METAR SARC 211200Z 16013KT CAVOK 19/10 Q1021 =

Aeropuerto EL CALAFATE

21 - 12:00 METAR SAWC 211200Z 14002KT CAVOK 12/03 Q1028 =

Aeropuerto EL PALOMAR

21 - 12:00 METAR SADP 211200Z 21011KT CAVOK 15/09 Q1024 =

Aeropuerto ESQUEL

21 - 12:00 METAR SAVE 211200Z 07009KT CAVOK 07/M00 Q1028 =

Aeropuerto EZEIZA

21 - 12:00 METAR SAEZ 211200Z 22009KT CAVOK 15/11 Q1023 NOSIG =

Aeropuerto FORMOSA

21 - 12:00 METAR SARF 211200Z 18012KT CAVOK 21/11 Q1018 =

Aeropuerto IGUAZU/CATARATAS

21 - 12:00 METAR SARI 211200Z 18011KT CAVOK 22/18 Q1015 =

Aeropuerto JUJUY

21 - 12:00 METAR SASJ 211200Z 23006KT 4500 -DZ BR SCT008 OVC045 17/15 Q1026 =

Aeropuerto LA RIOJA

21 - 12:00 METAR SANL 211200Z 23005KT 9999 SCT040 20/13 Q1024 =

Aeropuerto MALARGUE

21 - 12:00 METAR SAMM 211200Z 32002KT CAVOK 10/02 Q1030 =

Aeropuerto MAR DEL PLATA

21 - 12:00 METAR SAZM 211200Z 20010G21KT 170V240 9999 FEW020 BKN030 15/07 Q1021 =

Aeropuerto MENDOZA

21 - 12:00 METAR SAME 211200Z 18015G23KT CAVOK 18/05 Q1027 =

Aeropuerto MORON

21 - 12:00 METAR SADM 211200Z 20011KT CAVOK 15/10 Q1023 =

Aeropuerto NEUQUEN

21 - 12:00 METAR SAZN 211200Z 09012KT CAVOK 13/06 Q1030 =

Aeropuerto PARANA

21 - 12:00 METAR SAAP 211200Z 14012KT CAVOK 18/07 Q1025 =

Aeropuerto POSADAS

21 - 12:00 METAR SARP 211200Z 14010KT CAVOK 19/12 Q1019 =

Aeropuerto PUERTO MADRYN

21 - 12:00 METAR SAVY 211200Z 23008KT 9999 FEW025 12/07 Q1030 =

Aeropuerto RECONQUISTA

21 - 12:00 METAR SATR 211200Z 16009KT CAVOK 20/12 Q1023 =

Aeropuerto RESISTENCIA

21 - 12:00 METAR SARE 211200Z 15011KT CAVOK 19/10 Q1021 =

Aeropuerto RIO CUARTO

21 - 12:00 METAR SAOC 211200Z 29004KT CAVOK 16/09 Q1027 =

Aeropuerto RIO GALLEGOS

21 - 12:00 METAR SAWG 211200Z 23012KT CAVOK 13/07 Q1025 =

Aeropuerto RIO GRANDE

21 - 12:00 METAR SAWE 211200Z 25019KT CAVOK 15/11 Q1020 =

Aeropuerto ROSARIO

21 - 12:00 METAR SAAR 211200Z 16009KT CAVOK 16/09 Q1025 =

Aeropuerto SALTA

21 - 12:00 METAR SASA 211200Z 32005KT 5000 -DZ BKN005 OVC040 15/14 Q1026 =

Aeropuerto SAN FERNANDO

21 - 12:00 METAR SADF 211200Z 20011KT CAVOK 16/07 Q1024 =

Aeropuerto SAN JUAN

21 - 12:00 METAR SANU 211200Z 16012KT CAVOK 19/06 Q1027 =

Aeropuerto SAN LUIS

21 - 12:00 METAR SAOU 211200Z 09015G29KT 060V130 9999 BKN020 16/05 Q1026 =

Aeropuerto SAN RAFAEL

21 - 12:00 METAR SAMR 211200Z 11005KT CAVOK 14/03 Q1029 =

Aeropuerto SANTA ROSA

21 - 12:00 METAR SAZR 211200Z 16008KT 9000 NSC 13/08 Q1029 =

Aeropuerto SANTIAGO DEL ESTERO

21 - 12:00 METAR SANE 211200Z 16004KT 9999 BKN040 BKN060 20/10 Q1025 =

Aeropuerto SAUCE VIEJO

21 - 12:00 METAR SAAV 211200Z 18009KT CAVOK 17/10 Q1025 =

Aeropuerto TANDIL

21 - 12:00 METAR SAZT 211200Z 23013G27KT 9999 FEW020 SCT100 13/09 Q1024 =

Aeropuerto TERMAS DE RIO HONDO

21 - 00:00 METAR SANR 210000Z 00000KT 9999 OVC025 23/19 Q1018 =

Aeropuerto TRELEW

21 - 12:00 METAR SAVT 211200Z 25009KT 9999 FEW034 11/05 Q1031 =

Aeropuerto TUCUMAN

21 - 12:00 METAR SANT 211200Z 14006KT 4500 -DZ FEW006 BKN022 OVC040 16/14 Q1026 =

Aeropuerto USHUAIA

21 - 12:00 METAR SAWH 211200Z 23026KT 9999 BKN035 SCT100 13/10 Q1018 =

Aeropuerto VIEDMA

21 - 12:00 METAR SAVV 211200Z 18014KT 9999 BKN020 16/06 Q1028 =

Aeropuerto VILLA REYNOLDS

21 - 12:00 METAR SAOR 211200Z 09008KT CAVOK 17/07 Q1028 =

 PRONOSTICO DE AERODROMO (TAF) 11:00 UTC

Estación AEROPARQUE J. NEWBERY

21 - 11:00 TAF SABE 211100Z 2112/2212 23010KT CAVOK TX22/2119Z TN12/2210Z BECMG 2114/2116 22015KT 9999 BKN030 TEMPO 2116/2119 9000 -SHRA BECMG 2120/2123 18010KT 9999 SCT030 BECMG 2202/2205 16010KT =

Estación BAHIA BLANCA

21 - 11:00 TAF SAZB 211100Z 2112/2212 20010KT 9999 FEW040 TX21/2118Z TN08/2209Z BECMG 2113/2115 18015G25KT 9999 SCT025 BECMG 2119/2121 CAVOK BECMG 2200/2202 09005KT BECMG 2206/2209 36005 3000 BR SCT010 =

Estación BARILOCHE

21 - 11:00 TAF SAZS 211100Z 2112/2212 14010KT CAVOK TX22/2119Z TN07/2210Z BECMG 2113/2115 07015KT BECMG 2201/2202 VRB03KT =

Estación CATAMARCA

21 - 11:00 TAF SANC 211100Z 2112/2212 07015KT 9999 SCT030 BKN050 TX30/2119Z TN17/2210Z PROB40 TEMPO 2113/2117 18010KT 5000 -RA SCT015 OVC045 BECMG 2200/2203 02010KT 5000 RA DZ BKN015 OVC030 =

Estación CHAPELCO

21 - 12:00 SAZY 211200Z 2113/2212 11014KT CAVOK TX22/2119Z TN07/2209Z BECMG 2114/2116 07020G40KT BECMG 2200/2202 09010KT =

Estación COMODORO RIVADAVIA

21 - 11:00 TAF SAVC 211100Z 2112/2212 29010KT CAVOK TX21/2118Z TN12/2112Z BECMG 2115/2117 05010KT 9999 FEW030 BECMG 2202/2204 32010KT =

Estación CORDOBA

21 - 11:00 TAF SACO 211100Z 2112/2212 16005KT 9999 SCT030 BKN060 TX26/2119Z TN12/2210Z BECMG 2121/2200 09010KT 9999 BKN020 BECMG 2203/2206 34005KT =

Estación CORRIENTES

21 - 11:00 TAF SARC 211100Z 2112/2212 16010KT CAVOK TX30/2119Z TN15/2209Z =

Estación EL CALAFATE

21 - 11:00 TAF SAWC 211100Z 2112/2212 VRB05KT CAVOK TX22/2119Z TN08/2210Z BECMG 2114/2116 27010KT =

Estación EL PALOMAR

21 - 11:00 TAF SADP 211100Z 2112/2212 21010KT CAVOK TX23/2118Z TN09/2209Z BECMG 2113/2116 19015G25KT 9999 SCT030 BECMG 2120/2123 16010KT CAVOK =

Estación ESQUEL

21 - 11:00 TAF SAVE 211100Z 2112/2212 05010KT CAVOK TX24/2118Z TN07/2112Z BECMG 2115/2117 02015KT BECMG 2202/2204 VRB05KT =

Estación EZEIZA

21 - 11:00 SAEZ 211100

Estación FORMOSA

21 - 11:00 TAF SARF 211100Z 2112/2212 18015KT CAVOK TX31/2119Z TN17/2209Z =

Estación IGUAZU/CATARATAS

21 - 11:00 TAF SARI 211100Z 2112/2212 18010KT CAVOK TX31/2119Z TN19/2209Z PROB30 2208/2211 2000 BR NSC =

Estación JUJUY

21 - 11:00 TAF SASJ 211100Z 2112/2212 23010KT 5000 RA DZ BKN020 OVC050 TX24/2119Z TN17/2210Z BECMG 2115/2118 09010KT 8000 NSW SCT015 BKN020 PROB40 2200/2203 36005KT 5000 DZ BR BKN006 OVC010 =

Estación LA RIOJA

21 - 11:00 TAF SANL 211100Z 2112/2212 VRB03KT 9999 BKN015 OVC030 TX30/2119Z TN18/2210Z PROB40 TEMPO 2113/2117 VRB03KT 5000 -RA SCT015 OVC045 BECMG 2200/2203 34010KT 5000 RA DZ BKN012 OVC030 =

Estación MAR DEL PLATA

21 - 11:00 SAZM 211100Z 2112/2212 20015G25KT 9999 SCT030 FEW045TU TX17/2118Z TN10/2210Z TEMPO 2112/2120 21020G30KT 5000 SHRA SCT030 FEW045TCU BECMG 2203/2206 18010KT 9999 SCT020 =

Estación MENDOZA

21 - 11:00 TAF SAME 211100Z 2112/2212 16010KT 9999 FEW040 TX28/2120Z TN16/2210Z BECMG 2200/2202 VRB03KT =

Estación NEUQUEN

21 - 11:00 TAF SAZN 211100Z 2112/2212 14005KT CAVOK TX24/2119Z TN11/2210Z BECMG 2113/2115 07010KT BECMG 2122/2201 09005KT =

Estación PARANA

21 - 11:00 TAF SAAP 211100Z 2112/2212 16005KT CAVOK TX26/2118Z TN12/2210Z BECMG 2114/2116 18015KT BECMG 2123/2202 16005KT =

Estación POSADAS

21 - 11:00 TAF SARP 211100Z 2112/2212 14010KT CAVOK TX30/2119Z TN16/2209Z PROB30 2208/2211 VRB03KT 4000 BR NSC =

Estación RESISTENCIA

21 - 11:00 TAF SARE 211100Z 2112/2212 15010KT CAVOK TX30/2119Z TN16/2209Z =

Estación RIO CUARTO

21 - 11:00 TAF SAOC 211100Z 2112/2212 14005KT 9999 SCT020 BKN050 TX24/2119Z TN10/2210Z BECMG 2115/2118 11005KT 9999 SCT025 BKN060 PROB40 2208/2211 36005KT 5000 BR SCT012 SCT025 =

Estación RIO GALLEGOS

21 - 11:00 TAF SAWG 211100Z 2112/2212 23010KT CAVOK TX25/2118Z TN11/2210Z BECMG 2123/2201 VRB05KT =

Estación RIO GRANDE

21 - 11:00 TAF SAWE 211100Z 2112/2212 25015KT 9999 SCT025 OVC090 TX22/2118Z TN10/2210Z BECMG 2114/2116 27015KT CAVOK =

Estación ROSARIO

21 - 11:00 TAF SAAR 211100Z 2112/2212 18010KT CAVOK TX24/2119Z TN10/2210Z BECMG 2122/2201 20005KT =

Estación SALTA

21 - 11:00 TAF SASA 211100Z 2112/2212 32005KT 5000 DZ BR SCT004 BKN010 OVC030 TX25/2117Z TN13/2210Z BECMG 2115/2118 09010KT 8000 NSW SCT015 BKN020 PROB40 2200/2203 36005KT 5000 DZ BR BKN006 OVC010 =

Estación SAN FERNANDO

21 - 11:00 TAF SADF 211100Z 2112/2212 21010KT CAVOK TX23/2118Z TN11/2210Z BECMG 2200/2202 15010KT =

Estación SAN JUAN

21 - 11:00 TAF SANU 211100Z 2112/2212 16015KT CAVOK TX28/2120Z TN16/2210Z BECMG 2120/2122 16005KT BECMG 2201/2203 16010KT =

Estación SAN LUIS

21 - 11:00 TAF SAOU 211100Z 2112/2212 09015KT 9999 BKN030 TX25/2119Z TN13/2209Z BECMG 2116/2118 FEW040 BECMG 2203/2205 02005KT BECMG 2210/2212 02010KT =

Estación SAN RAFAEL

21 - 11:00 TAF SAMR 211100Z 2112/2212 16010KT CAVOK TX25/2120Z TN09/2210Z BECMG 2114/2116 05010KT BECMG 2201/2203 VRB03KT =

Estación SANTA ROSA

21 - 11:00 TAF SAZR 211100Z 2112/2212 23005KT 7000 NSC TX25/2118Z TN09/2210Z BECMG 2113/2115 16010KT CAVOK BECMG 2123/2202 07005KT BECMG 2106/2108 04010KT =

Estación SANTIAGO DEL ESTERO

21 - 11:00 TAF SANE 211100Z 2112/2212 VRB03KT 9999 BKN030 BKN060 TX28/2119Z TN19/2210Z BECMG 2115/2118 16010KT 9999 BKN025 BKN060 BECMG 2204/2207 18005KT 6000 RA BKN020 OVC045 =

Estación SAUCE VIEJO

21 - 11:00 TAF SAAV 211100Z 2112/2212 20005KT CAVOK TX26/2118Z TN12/2210Z BECMG 2114/2116 18015KT BECMG 2123/2202 16005KT =

Estación TERMAS DE RIO HONDO

21 - 11:00 TAF SANR 211100Z 2112/2212 NIL =

Estación TRELEW

21 - 11:00 TAF SAVT 211100Z 2112/2212 25005KT CAVOK TX22/2118Z TN09/2112Z BECMG 2114/2116 09010KT BECMG 2201/2203 36010KT =

Estación TUCUMAN

21 - 11:00 TAF SANT 211100Z 2112/2212 14005KT 5000 DZ BR BKN007 OVC020 TX28/2119Z TN18/2210Z BECMG 2115/2118 09010KT 8000 NSW SCT015 BKN020 PROB40 2203/2206 36005KT 5000 DZ BR BKN006 OVC010 =

Estación USHUAIA

21 - 11:00 TAF SAWH 211100Z 2112/2212 23025G35KT 9999 SCT035 BKN060 TX20/2118Z TN06/2110Z BECMG 2114/2116 29015KT 9999 -RADZ SCT030 OVC050 BECMG 2201/2203 4000 BRDZ SCT020 BKN050 =

Estación VIEDMA

21 - 11:00 TAF SAVV 211100Z 2112/2212 18015KT 9999 -DZ SCT020 BKN090 TX21/2119Z TN10/2209Z BECMG 2119/2122 09010KT BECMG 2201/2204 36010KT =